Hit Tracker is now ESPN Home Run Tracker! Hit Tracker founder Greg Rybarczyk is now collaborating with the ESPN Stats & Information Group to continue tracking all MLB home runs, and helping baseball fans know "How Far It Really Went!™" Please credit any information on this site to ESPN Stats & Information Group. For more information and analysis on home runs, please contact founder Greg Rybarczyk. E-Mail ESPN Home Run Tracker
Main Page | Ballparks | Park Overlays | Glossary | Highlight Homers | Feedback | Bio | 3 Types of HR's | AAA Home Run Derby Last Updated: July 24, 2016, 9:18 pm PST
If you want to know "How Far It Really Went!", then you've come to the right place! Welcome to the ESPN Home Run Tracker, where you can find accurate, transparently verifiable distances for every home run hit in MLB games. Please also check out the ESPN MLB Scoreboard throughout the 2016 season! Contact us at grybar@hittrackeronline.com.
Season:
Ballpark detail for Chase Field
Ballpark # of Home Runs HR per game Avg.
True
Distance
Avg.
Speed
Off
Bat
Avg.
Std.
Dist.
Chase Field 135 2.60 407.4 105.3 403.6

Scatter Plot of Home Runs Chase Field
 Overlay Ballpark:
Without range rings   With range rings

2016 Season Home Runs for Chase Field
Click headers to sort
Date Video Path Hitter Hitter
Team
 ^
Pitcher Pitcher
Team
INN Ballpark Type/
Luck
True
Dist.
Speed
Off
Bat
Elev.
Angle
Horiz.
Angle
Apex Impact Due To: Std.
Dist.
#
Parks
Wind Temp. Alt.
07/19/16 Video View Encarnacion, Edwin TOR Godley, Zack ARI 3 Chase Field PL 424 110.2 22.7 103.0 70 0 1 1 423 30
07/20/16 Video View Donaldson, Josh TOR Corbin, Patrick ARI 1 Chase Field JE 405 108.7 21.6 77.2 61 0 0 0 404 27
07/20/16 Video View Encarnacion, Edwin TOR Hudson, Daniel ARI 8 Chase Field ND 469 114.1 29.3 105.0 122 0 2 5 461 30
06/06/16 Video View Beckham, Tim TB Ray, Robbie ARI 5 Chase Field PL 409 106.2 35.5 107.1 143 0 4 6 399 30
06/06/16 Video View Jennings, Desmond TB Barrett, Jake ARI 7 Chase Field ND 411 108.0 30.7 123.9 96 0 2 3 406 30
06/08/16 Video View Dickerson, Corey TB Bradley, Archie ARI 1 Chase Field JE 402 101.6 27.0 100.8 85 0 1 2 400 26
06/08/16 Video View Jennings, Desmond TB Bradley, Archie ARI 6 Chase Field PL 406 107.8 22.6 104.0 65 0 0 1 405 30
06/08/16 Video View Dickerson, Corey TB Clippard, Tyler ARI 7 Chase Field PL 399 107.0 36.4 66.5 142 0 2 7 390 30
04/25/16 Video View Hazelbaker, Jeremy STL Greinke, Zack ARI 5 Chase Field JE 372 100.1 26.4 110.9 70 0 0 1 371 17
04/25/16 Video View Carpenter, Matt STL Greinke, Zack ARI 7 Chase Field PL 405 105.1 24.6 76.0 73 0 1 1 403 29
04/26/16 Video View Piscotty, Stephen STL Leone, Dominic ARI 7 Chase Field PL 444 106.7 26.8 92.3 100 1 0 3 440 30
04/26/16 Video View Moss, Brandon STL Miller, Shelby ARI 5 Chase Field PL 399 103.7 29.0 67.0 89 0 0 2 396 30
04/27/16 Video View Diaz, Aledmys STL Corbin, Patrick ARI 5 Chase Field ND 441 113.6 28.7 120.2 97 0 2 3 436 30
05/12/16 Video View Panik, Joe SF Greinke, Zack ARI 5 Chase Field PL 404 106.8 26.6 64.6 77 0 2 1 401 30
05/13/16 Video View Panik, Joe SF Miller, Shelby ARI 6 Chase Field ND 410 106.8 33.6 61.9 117 0 3 5 402 30
05/14/16 Video View Pence, Hunter SF Corbin, Patrick ARI 4 Chase Field JE 383 104.4 22.9 106.3 60 0 1 1 382 15
05/15/16 Video View Brown, Trevor SF De La Rosa, Rubby ARI 3 Chase Field JE 396 106.3 22.8 104.9 64 0 0 1 396 27
07/01/16 Video View Parker, Jarrett SF Delgado, Randall ARI 8 Chase Field ND 415 106.1 30.8 111.2 107 -5 4 3 412 30
07/02/16 Video View Crawford, Brandon SF Corbin, Patrick ARI 4 Chase Field PL 390 102.7 25.9 108.2 73 0 0 1 389 30
07/02/16 Video View Williamson, Mac SF Corbin, Patrick ARI 4 Chase Field ND 462 109.9 28.7 95.4 119 0 2 3 456 30
05/27/16 Video View Kemp, Matt SD Ray, Robbie ARI 5 Chase Field JE 436 106.6 24.4 92.5 84 0 1 1 434 29
05/27/16 Video View Solarte, Yangervis SD Ray, Robbie ARI 5 Chase Field ND 420 111.6 24.6 114.6 72 0 1 2 417 30
05/27/16 Video View Norris, Derek SD Leone, Dominic ARI 5 Chase Field PL 413 104.6 26.0 102.9 82 0 1 2 411 30
05/27/16 Video View Solarte, Yangervis SD Collmenter, Josh ARI 6 Chase Field PL 387 102.3 34.4 62.6 113 0 3 4 380 30
05/28/16 Video View Kemp, Matt SD Greinke, Zack ARI 1 Chase Field ND 438 111.5 29.6 117.1 102 0 4 4 430 30
05/29/16 Video View Ramirez, Alexei SD Bradley, Archie ARI 5 Chase Field PL 414 103.6 30.9 103.9 111 0 0 3 410 30
07/04/16 Video View Solarte, Yangervis SD Bradley, Archie ARI 4 Chase Field ND 428 108.1 27.0 72.4 90 0 1 2 424 30
07/04/16 Video View Norris, Derek SD Bradley, Archie ARI 6 Chase Field JE 370 97.8 29.6 112.2 82 0 1 2 367 19
07/05/16 Video View Schimpf, Ryan SD Ziegler, Brad ARI 9 Chase Field PL 406 106.4 23.3 103.2 68 0 0 1 405 30
07/06/16 Video View Schimpf, Ryan SD Miller, Shelby ARI 4 Chase Field PL 388 107.0 24.2 63.9 63 0 1 1 386 30
07/06/16 Video View Schimpf, Ryan SD Collmenter, Josh ARI 9 Chase Field PL 401 101.9 33.2 74.6 119 0 2 4 395 30
07/06/16 Video View Solarte, Yangervis SD Collmenter, Josh ARI 9 Chase Field JE 362 103.4 25.0 55.5 59 0 1 2 360 28
04/22/16 Video View Polanco, Gregory PIT Corbin, Patrick ARI 2 Chase Field PL 457 108.8 25.9 92.6 97 1 2 3 451 30
04/22/16 Video View Rodriguez, Sean PIT Corbin, Patrick ARI 2 Chase Field ND 468 113.1 32.5 101.4 147 5 6 6 451 30
04/22/16 Video View Mercer, Jordy PIT Corbin, Patrick ARI 3 Chase Field ND 461 114.6 23.8 102.8 84 0 2 2 457 30
04/23/16 Video View Rodriguez, Sean PIT De La Rosa, Rubby ARI 2 Chase Field JE 365 96.6 31.8 67.0 91 0 1 3 362 22
06/28/16 Video View Franco, Maikel PHI Delgado, Randall ARI 5 Chase Field PL 400 100.2 31.6 102.6 107 0 2 3 394 27
06/29/16 Video View Bourjos, Peter PHI Bradley, Archie ARI 1 Chase Field PL 400 101.4 32.3 105.0 112 0 2 4 395 30
05/17/16 Video View Castro, Starlin NYY Greinke, Zack ARI 2 Chase Field PL 424 104.5 32.3 98.2 127 0 1 5 418 30
05/18/16 Video View Gardner, Brett NYY Miller, Shelby ARI 1 Chase Field ND 416 105.5 28.4 72.2 94 0 1 3 413 30
06/10/16 Video View Bour, Justin MIA Clippard, Tyler ARI 7 Chase Field PL 399 104.7 30.6 60.8 94 0 1 3 395 30
06/11/16 Video View Realmuto, J.T. MIA Godley, Zack ARI 4 Chase Field ND 426 112.0 25.0 114.5 75 0 2 2 422 30
06/11/16 Video View Ozuna, Marcell MIA Hudson, Daniel ARI 8 Chase Field PL 381 101.6 28.7 117.3 79 -1 2 2 378 30
06/13/16 Video View Seager, Corey LAD Greinke, Zack ARI 5 Chase Field PL 435 106.8 27.1 79.0 95 0 2 2 430 30
06/14/16 Video View Pederson, Joc LAD Bradley, Archie ARI 5 Chase Field ND 414 109.0 25.7 66.2 76 0 2 2 411 30
06/14/16 Video View Turner, Justin LAD Bradley, Archie ARI 6 Chase Field ND 454 113.6 24.3 103.9 84 0 1 2 451 30
06/14/16 Video View Pederson, Joc LAD Bradley, Archie ARI 6 Chase Field ND 428 109.8 24.0 75.4 75 0 1 1 426 30
06/14/16 Video View Utley, Chase LAD Curtis, Zac ARI 7 Chase Field PL 406 103.1 30.1 71.4 99 0 2 3 401 30
06/15/16 Video View Van Slyke, Scott LAD Corbin, Patrick ARI 6 Chase Field PL 396 102.9 28.8 111.9 87 0 0 2 393 30
07/15/16 Video View Turner, Justin LAD Corbin, Patrick ARI 1 Chase Field JE 439 107.0 24.5 92.4 86 0 1 2 437 29
07/15/16 Video View Taylor, Chris LAD Bracho, Silvino ARI 6 Chase Field PL 409 103.9 31.0 109.4 105 0 2 3 403 30
07/17/16 Video View Turner, Justin LAD Hudson, Daniel ARI 8 Chase Field JE 370 97.6 29.8 68.3 83 0 1 2 367 21
05/31/16 Video View Springer, George HOU Corbin, Patrick ARI 2 Chase Field JE 372 97.0 34.1 72.8 110 0 1 4 367 14
05/31/16 Video View Valbuena, Luis HOU Delgado, Randall ARI 5 Chase Field PL 405 105.2 26.8 70.2 81 0 0 2 403 30
04/04/16 Video View Story, Trevor COL Greinke, Zack ARI 3 Chase Field JE 368 97.7 30.5 65.3 85 0 1 2 364 25
04/04/16 Video View Gonzalez, Carlos COL Greinke, Zack ARI 3 Chase Field JE 415 119.3 17.6 78.5 48 0 0 1 414 27
04/04/16 Video View Story, Trevor COL Greinke, Zack ARI 4 Chase Field ND 428 107.1 29.7 107.1 107 0 1 3 424 30
04/04/16 Video View Arenado, Nolan COL Bracho, Silvino ARI 8 Chase Field PL 386 101.4 34.7 110.4 121 0 0 5 382 30
04/05/16 Video View Story, Trevor COL Miller, Shelby ARI 4 Chase Field ND 436 107.9 29.9 105.3 112 0 3 4 430 30
04/05/16 Video View LeMahieu, DJ COL Miller, Shelby ARI 4 Chase Field PL 424 108.7 23.1 101.0 72 0 1 1 422 30
04/05/16 Video View Hundley, Nick COL Miller, Shelby ARI 4 Chase Field PL 386 105.9 25.9 120.9 68 0 1 2 384 30
04/06/16 Video View Story, Trevor COL Corbin, Patrick ARI 1 Chase Field PL 434 110.2 22.2 98.1 72 0 0 1 433 30
04/06/16 Video View LeMahieu, DJ COL Corbin, Patrick ARI 3 Chase Field ND 419 108.7 25.5 109.8 79 0 1 2 417 30
04/06/16 Video View Raburn, Ryan COL Corbin, Patrick ARI 7 Chase Field JE 367 96.8 33.9 111.3 104 0 2 4 362 17
04/29/16 Video View Story, Trevor COL Ray, Robbie ARI 5 Chase Field ND 445 115.6 21.6 103.1 69 0 1 1 443 30
04/29/16 Video View Arenado, Nolan COL Ray, Robbie ARI 5 Chase Field ND 416 107.7 32.4 116.7 114 0 2 4 410 30
04/29/16 Video View Hundley, Nick COL Ray, Robbie ARI 4 Chase Field JE 382 112.9 21.3 119.3 53 0 -7 1 387 30
04/29/16 Video View Raburn, Ryan COL Ray, Robbie ARI 4 Chase Field ND 418 106.3 32.2 109.8 118 0 2 4 412 30
05/01/16 Video View Parra, Gerardo COL Barrett, Jake ARI 5 Chase Field PL 410 110.1 21.6 76.3 61 0 1 1 409 29
05/01/16 Video View Arenado, Nolan COL Delgado, Randall ARI 7 Chase Field PL 374 99.5 34.4 118.6 106 0 2 4 368 30
04/07/16 Video View Rizzo, Anthony CHC Delgado, Randall ARI 9 Chase Field JE 379 109.0 22.4 60.4 55 0 0 1 377 29
04/10/16 Video View Arrieta, Jake CHC Miller, Shelby ARI 2 Chase Field PL 442 107.1 27.7 97.5 104 0 0 3 439 30
04/10/16 Video View Soler, Jorge CHC Miller, Shelby ARI 6 Chase Field PL 399 100.5 31.7 102.7 109 0 1 4 395 27
04/04/16 Video View Lamb, Jake ARI De La Rosa, Jorge COL 4 Chase Field JE 377 107.4 23.9 56.7 59 0 1 2 375 30
04/05/16 Video View Goldschmidt, Paul ARI Bettis, Chad COL 1 Chase Field PL 445 107.0 28.3 83.8 108 0 3 3 440 30
04/05/16 Video View Segura, Jean ARI Bettis, Chad COL 3 Chase Field PL 413 103.5 32.8 103.4 122 0 3 4 406 30
04/06/16 Video View Ahmed, Nick ARI McGee, Jake COL 9 Chase Field PL 411 102.3 28.5 100.7 95 0 1 3 407 30
04/07/16 Video View Segura, Jean ARI Lackey, John CHC 1 Chase Field PL 383 98.4 32.0 73.5 102 0 1 3 379 24
04/07/16 Video View Segura, Jean ARI Lackey, John CHC 2 Chase Field ITP/L 390 98.7 26.7 97.2 80 0 1 2 388 2
04/10/16 Video View Goldschmidt, Paul ARI Arrieta, Jake CHC 4 Chase Field PL 405 103.6 30.4 109.8 100 0 0 3 401 30
04/10/16 Video View Brito, Socrates ARI Arrieta, Jake CHC 5 Chase Field JE 379 105.9 24.1 62.5 61 0 0 1 378 29
04/22/16 Video View Peralta, David ARI Niese, Jonathon PIT 2 Chase Field JE 379 97.0 34.1 108.0 108 5 4 4 367 12
04/22/16 Video View Castillo, Welington ARI Niese, Jonathon PIT 4 Chase Field PL 378 101.0 37.5 110.0 136 1 6 6 365 20
04/22/16 Video View Castillo, Welington ARI Watson, Tony PIT 8 Chase Field ND 442 117.1 25.9 123.8 81 -1 2 3 439 30
04/23/16 Video View Peralta, David ARI Nicasio, Juan PIT 3 Chase Field PL 394 100.0 29.2 76.3 92 0 1 2 391 26
04/23/16 Video View Herrmann, Chris ARI Schugel, A.J. PIT 8 Chase Field PL 399 106.3 26.9 62.9 77 0 0 2 397 30
04/24/16 Video View Goldschmidt, Paul ARI Liriano, Francisco PIT 1 Chase Field JE 365 96.6 31.9 66.9 92 0 1 3 362 22
04/24/16 Video View Castillo, Welington ARI Liriano, Francisco PIT 3 Chase Field JE 348 103.5 23.3 128.1 51 0 0 1 346 17
04/24/16 Video View Tomas, Yasmany ARI Vogelsong, Ryan PIT 8 Chase Field PL 381 102.2 27.0 65.4 74 0 0 1 379 29
04/24/16 Video View Goldschmidt, Paul ARI Melancon, Mark PIT 9 Chase Field JE 370 98.7 28.3 67.6 77 0 0 2 368 22
04/25/16 Video View Segura, Jean ARI Siegrist, Kevin STL 6 Chase Field PL 397 112.1 21.3 112.1 56 0 0 1 396 30
04/26/16 Video View Lamb, Jake ARI Lyons, Tyler STL 9 Chase Field JE 394 102.7 24.5 77.8 71 0 0 1 394 21
04/26/16 Video View Tomas, Yasmany ARI Lyons, Tyler STL 9 Chase Field JE 379 103.0 24.2 71.0 64 0 0 1 378 21
04/27/16 Video View Goldschmidt, Paul ARI Wainwright, Adam STL 4 Chase Field JE 422 103.1 31.9 94.4 122 0 2 4 416 27
04/27/16 Video View Drury, Brandon ARI Wainwright, Adam STL 2 Chase Field PL 405 109.4 21.8 104.8 61 0 0 0 404 30
04/28/16 Video View Herrmann, Chris ARI Wacha, Michael STL 2 Chase Field PL 400 101.3 27.8 77.0 87 1 1 2 397 27
04/28/16 Video View Drury, Brandon ARI Wacha, Michael STL 4 Chase Field ND 451 113.6 27.0 111.2 95 0 1 3 447 30
04/30/16 Video View Drury, Brandon ARI Estevez, Carlos COL 6 Chase Field ND 409 104.9 32.2 111.1 113 0 1 4 404 30
05/01/16 Video View Drury, Brandon ARI Bettis, Chad COL 1 Chase Field JE 383 98.3 34.4 103.6 118 0 2 4 377 15
05/16/16 Video View Goldschmidt, Paul ARI Green, Chad NYY 1 Chase Field ND 406 105.7 29.3 116.3 90 -1 3 2 402 30
05/16/16 Video View Lamb, Jake ARI Green, Chad NYY 5 Chase Field PL 426 104.6 28.9 79.1 102 0 2 3 421 29
05/17/16 Video View Lamb, Jake ARI Pineda, Michael NYY 5 Chase Field PL 412 102.9 26.6 80.6 86 0 0 1 410 28
05/18/16 Video View Owings, Chris ARI Miller, Andrew NYY 8 Chase Field PL 386 101.5 33.8 114.6 111 0 1 4 381 30
05/27/16 Video View Drury, Brandon ARI Hessler, Keith SD 8 Chase Field PL 412 105.3 25.2 102.9 78 0 1 1 410 30
05/27/16 Video View Lamb, Jake ARI Perdomo, Luis SD 9 Chase Field PL 426 110.6 22.7 77.0 70 0 1 1 425 29
05/28/16 Video View Goldschmidt, Paul ARI Vargas, Cesar SD 2 Chase Field ND 420 109.2 28.9 119.3 91 0 3 3 415 30
05/29/16 Video View Owings, Chris ARI Pomeranz, Drew SD 2 Chase Field PL 399 103.7 25.5 105.4 75 0 0 1 398 30
05/30/16 Video View Goldschmidt, Paul ARI McHugh, Collin HOU 1 Chase Field PL 405 101.4 29.2 78.2 97 0 1 3 402 29
05/30/16 Video View Lamb, Jake ARI McHugh, Collin HOU 9 Chase Field PL 406 105.3 25.6 73.2 77 0 0 2 404 30
06/06/16 Video View Ray, Robbie ARI Archer, Chris TB 3 Chase Field PL 399 101.2 29.7 74.6 95 0 1 3 395 29
06/06/16 Video View Peralta, David ARI Archer, Chris TB 6 Chase Field PL 429 105.8 25.9 82.0 89 0 1 2 426 30
06/07/16 Video View Lamb, Jake ARI Moore, Matt TB 4 Chase Field JE/L 369 96.3 33.7 108.7 104 0 2 4 364 15
06/07/16 Video View Goldschmidt, Paul ARI Moore, Matt TB 6 Chase Field JE 376 99.6 28.3 112.5 78 0 1 2 373 24
06/08/16 Video View Weeks, Rickie ARI Odorizzi, Jake TB 2 Chase Field JE 389 105.3 23.6 71.8 64 0 0 0 388 25
06/11/16 Video View Bourn, Michael ARI Fernandez, Jose MIA 6 Chase Field PL 402 104.7 27.5 67.0 81 0 2 2 397 30
06/11/16 Video View Herrmann, Chris ARI Dunn, Mike MIA 7 Chase Field PL 443 106.6 31.1 81.6 122 3 5 4 432 30
06/12/16 Video View O'Brien, Peter ARI Conley, Adam MIA 1 Chase Field ND 433 113.0 28.5 122.5 92 0 1 3 429 30
06/13/16 Video View Goldschmidt, Paul ARI Bolsinger, Mike LAD 1 Chase Field JE 412 101.4 28.8 81.9 96 0 3 2 407 26
06/13/16 Video View Lamb, Jake ARI Bolsinger, Mike LAD 3 Chase Field JE 398 100.8 27.0 101.9 81 0 2 2 394 20
06/15/16 Video View Weeks, Rickie ARI Kershaw, Clayton LAD 2 Chase Field PL 394 105.1 28.4 120.3 81 0 0 2 391 30
06/28/16 Video View Tomas, Yasmany ARI Eickhoff, Jerad PHI 6 Chase Field ND 459 112.0 25.8 101.1 96 0 2 2 455 30
06/28/16 Video View Lamb, Jake ARI Hernandez, David PHI 7 Chase Field PL 397 102.5 34.0 69.8 119 0 3 4 390 30
06/29/16 Video View Lamb, Jake ARI Eflin, Zach PHI 1 Chase Field PL 442 106.2 27.1 91.3 101 0 1 2 439 29
07/01/16 Video View Castillo, Welington ARI Cueto, Johnny SF 1 Chase Field PL 397 100.4 35.8 102.3 130 6 6 5 381 15
07/01/16 Video View Lamb, Jake ARI Cueto, Johnny SF 3 Chase Field ND 439 109.5 25.9 75.8 88 -1 3 2 435 30
07/02/16 Video View Castillo, Welington ARI Strickland, Hunter SF 8 Chase Field PL 404 103.9 24.8 102.2 75 0 0 1 403 30
07/03/16 Video View Goldschmidt, Paul ARI Suarez, Albert SF 6 Chase Field JE 438 108.3 22.7 88.4 77 0 1 1 437 28
07/03/16 Video View Lamb, Jake ARI Gearrin, Cory SF 8 Chase Field JE 373 107.6 21.7 66.1 52 0 0 1 372 17
07/05/16 Video View Weeks, Rickie ARI Friedrich, Christian SD 3 Chase Field PL 445 107.8 26.2 96.2 97 0 1 2 442 30
07/06/16 Video View Drury, Brandon ARI Rea, Colin SD 3 Chase Field ND 420 108.0 27.4 112.0 87 0 1 2 417 30
07/06/16 Video View Lamb, Jake ARI Thornton, Matt SD 9 Chase Field PL 398 102.5 26.5 105.6 79 0 1 2 395 30
07/15/16 Video View Segura, Jean ARI Fien, Casey LAD 7 Chase Field JE 368 97.3 29.3 68.6 80 0 1 2 365 17
07/15/16 Video View Goldschmidt, Paul ARI Fien, Casey LAD 7 Chase Field JE 432 105.9 25.2 95.5 87 0 1 2 429 29
07/17/16 Video View Lamb, Jake ARI Maeda, Kenta LAD 3 Chase Field PL 430 104.5 30.6 84.7 118 0 1 4 426 27
07/20/16 Video View Gosewisch, Tuffy ARI Cecil, Brett TOR 9 Chase Field PL 360 100.7 38.8 117.3 135 0 3 6 351 27


About HitTracker | Contact Us
© 2006-2016 HitTrackerOnline